createdAt,value
2022-12-06T00:01:16.562Z,3.70
2022-12-06T00:03:44.710Z,2.75
2022-12-06T00:06:13.797Z,5.68
2022-12-06T00:08:41.228Z,5.53
2022-12-06T00:11:18.581Z,3.95
2022-12-06T00:13:46.494Z,4.50
2022-12-06T00:16:15.200Z,4.82
2022-12-06T00:18:43.225Z,3.38
2022-12-06T00:21:10.297Z,3.35
2022-12-06T00:23:38.556Z,3.85
2022-12-06T00:26:05.857Z,2.60
2022-12-06T00:28:33.240Z,2.72
2022-12-06T00:31:01.496Z,2.42
2022-12-06T00:33:29.246Z,2.03
2022-12-06T00:35:59.864Z,2.55
2022-12-06T00:38:27.476Z,2.42
2022-12-06T00:41:04.961Z,3.50
2022-12-06T00:43:32.545Z,4.18
2022-12-06T00:45:59.813Z,2.85
2022-12-06T00:48:27.121Z,4.07
2022-12-06T00:50:54.195Z,5.65
2022-12-06T00:53:21.357Z,11.88
2022-12-06T00:55:48.933Z,9.18
2022-12-06T00:58:16.687Z,7.93
2022-12-06T01:00:44.193Z,4.65
2022-12-06T01:03:11.917Z,6.80
2022-12-06T01:05:42.928Z,7.20
2022-12-06T01:08:10.155Z,6.95
2022-12-06T01:10:37.775Z,7.30
2022-12-06T01:13:05.567Z,5.15
2022-12-06T01:15:33.016Z,4.20
2022-12-06T01:18:00.080Z,4.18
2022-12-06T01:20:27.119Z,4.93
2022-12-06T01:22:54.347Z,5.97
2022-12-06T01:25:25.186Z,5.25
2022-12-06T01:27:53.075Z,5.25
2022-12-06T01:30:20.152Z,3.80
2022-12-06T01:32:47.229Z,4.95
2022-12-06T01:35:14.294Z,5.32
2022-12-06T01:37:41.417Z,3.85
2022-12-06T01:40:08.900Z,4.13
2022-12-06T01:42:36.044Z,3.08
2022-12-06T01:45:03.144Z,3.17
2022-12-06T01:47:36.505Z,3.45
2022-12-06T01:52:32.781Z,3.10
2022-12-06T01:55:00.519Z,2.67
2022-12-06T01:57:28.058Z,2.50
2022-12-06T01:59:55.219Z,2.28
2022-12-06T02:02:22.526Z,2.40
2022-12-06T02:04:51.408Z,2.67
2022-12-06T02:07:18.629Z,2.35
2022-12-06T02:09:46.822Z,2.70
2022-12-06T02:12:15.036Z,2.55
2022-12-06T02:14:43.144Z,2.17
2022-12-06T02:17:10.307Z,2.45
2022-12-06T02:19:46.706Z,3.00
2022-12-06T02:22:16.773Z,2.42
2022-12-06T02:24:52.602Z,2.33
2022-12-06T02:27:19.617Z,2.30
2022-12-06T02:29:59.620Z,2.45
2022-12-06T02:32:41.295Z,2.78
2022-12-06T02:35:24.249Z,2.42
2022-12-06T02:37:57.460Z,1.85
2022-12-06T02:40:28.047Z,2.13
2022-12-06T02:42:57.203Z,2.30
2022-12-06T02:45:27.873Z,2.08
2022-12-06T02:47:57.092Z,2.00
2022-12-06T02:50:29.012Z,1.73
2022-12-06T02:52:59.134Z,2.20
2022-12-06T02:55:27.181Z,1.80
2022-12-06T02:57:54.725Z,2.30
2022-12-06T03:00:33.005Z,1.95
2022-12-06T03:03:18.937Z,2.10
2022-12-06T03:06:02.210Z,2.20
2022-12-06T03:08:35.472Z,1.80
2022-12-06T03:11:03.231Z,2.17
2022-12-06T03:13:50.556Z,2.03
2022-12-06T03:16:23.863Z,1.77
2022-12-06T03:18:55.240Z,1.92
2022-12-06T03:21:35.676Z,1.52
2022-12-06T03:24:05.804Z,1.95
2022-12-06T03:26:33.190Z,2.22
2022-12-06T03:29:01.255Z,2.13
2022-12-06T03:31:29.958Z,2.30
2022-12-06T03:33:59.826Z,2.13
2022-12-06T03:36:27.756Z,2.45
2022-12-06T03:39:02.454Z,2.25
2022-12-06T03:41:31.942Z,2.70
2022-12-06T03:44:00.091Z,2.40
2022-12-06T03:46:30.298Z,2.08
2022-12-06T03:48:59.965Z,2.40
2022-12-06T03:51:29.276Z,2.03
2022-12-06T03:53:58.302Z,2.33
2022-12-06T03:56:25.765Z,2.28
2022-12-06T03:58:53.176Z,1.70
2022-12-06T04:01:20.312Z,2.30
2022-12-06T04:03:47.546Z,2.05
2022-12-06T04:06:14.730Z,2.67
2022-12-06T04:08:41.848Z,2.22
2022-12-06T04:11:08.997Z,2.22
2022-12-06T04:13:36.063Z,1.77
2022-12-06T04:16:03.315Z,2.22
2022-12-06T04:18:30.657Z,1.70
2022-12-06T04:21:16.539Z,2.05
2022-12-06T04:23:45.121Z,1.80
2022-12-06T04:26:13.193Z,1.90
2022-12-06T04:28:58.982Z,1.90
2022-12-06T04:31:45.226Z,1.73
2022-12-06T04:34:31.289Z,2.00
2022-12-06T04:37:17.174Z,1.42
2022-12-06T04:39:44.273Z,2.20
2022-12-06T04:42:30.703Z,1.73
2022-12-06T04:44:57.949Z,1.98
2022-12-06T04:47:25.517Z,2.05
2022-12-06T04:49:53.158Z,1.73
2022-12-06T04:52:20.431Z,1.40
2022-12-06T04:54:48.107Z,2.13
2022-12-06T04:57:16.573Z,1.90
2022-12-06T04:59:45.399Z,1.50
2022-12-06T05:02:13.672Z,1.45
2022-12-06T05:04:40.783Z,1.70
2022-12-06T05:07:08.171Z,1.50
2022-12-06T05:09:35.203Z,1.63
2022-12-06T05:12:02.266Z,1.80
2022-12-06T05:14:29.368Z,1.67
2022-12-06T05:16:56.620Z,2.28
2022-12-06T05:19:23.777Z,1.45
2022-12-06T05:21:51.038Z,1.60
2022-12-06T05:24:18.080Z,1.70
2022-12-06T05:26:45.168Z,2.00
2022-12-06T05:29:12.274Z,1.60
2022-12-06T05:31:39.527Z,1.73
2022-12-06T05:34:06.627Z,1.30
2022-12-06T05:36:33.827Z,1.65
2022-12-06T05:39:00.886Z,1.70
2022-12-06T05:41:27.937Z,1.40
2022-12-06T05:43:55.065Z,1.83
2022-12-06T05:46:22.256Z,1.83
2022-12-06T05:48:49.315Z,1.85
2022-12-06T05:51:16.405Z,1.58
2022-12-06T05:53:43.459Z,1.67
2022-12-06T05:56:11.787Z,2.20
2022-12-06T05:58:39.425Z,1.30
2022-12-06T06:01:07.186Z,1.85
2022-12-06T06:03:34.834Z,1.80
2022-12-06T06:06:02.317Z,1.27
2022-12-06T06:08:30.146Z,2.17
2022-12-06T06:10:57.603Z,2.03
2022-12-06T06:13:24.682Z,2.13
2022-12-06T06:15:51.811Z,1.40
2022-12-06T06:18:19.280Z,1.92
2022-12-06T06:20:50.293Z,2.10
2022-12-06T06:23:17.511Z,1.60
2022-12-06T06:25:44.627Z,1.73
2022-12-06T06:28:11.747Z,1.77
2022-12-06T06:30:38.960Z,1.60
2022-12-06T06:33:06.193Z,1.63
2022-12-06T06:35:33.724Z,2.85
2022-12-06T06:38:01.001Z,3.53
2022-12-06T06:40:28.595Z,10.38
2022-12-06T06:42:55.853Z,5.38
2022-12-06T06:45:28.431Z,3.38
2022-12-06T06:47:56.130Z,2.58
2022-12-06T06:50:23.246Z,2.67
2022-12-06T06:52:50.440Z,2.75
2022-12-06T06:55:19.505Z,2.33
2022-12-06T06:57:47.624Z,2.17
2022-12-06T07:00:15.145Z,2.03
2022-12-06T07:02:42.291Z,1.95
2022-12-06T07:05:09.553Z,2.38
2022-12-06T07:07:36.646Z,2.28
2022-12-06T07:10:03.996Z,1.83
2022-12-06T07:12:31.565Z,2.05
2022-12-06T07:14:58.633Z,1.85
2022-12-06T07:17:25.811Z,2.40
2022-12-06T07:19:52.962Z,1.90
2022-12-06T07:22:20.082Z,2.40
2022-12-06T07:24:52.237Z,2.33
2022-12-06T07:27:19.637Z,2.00
2022-12-06T07:29:46.873Z,1.77
2022-12-06T07:32:14.074Z,2.10
2022-12-06T07:34:41.222Z,1.90
2022-12-06T07:37:08.336Z,1.92
2022-12-06T07:39:35.459Z,2.15
2022-12-06T07:42:21.102Z,1.90
2022-12-06T07:45:04.579Z,1.75
2022-12-06T07:47:39.332Z,1.92
2022-12-06T07:50:09.476Z,1.90
2022-12-06T07:52:39.346Z,1.60
2022-12-06T07:55:07.670Z,2.17
2022-12-06T07:57:38.646Z,2.55
2022-12-06T08:00:10.967Z,2.35
2022-12-06T08:02:38.077Z,1.73
2022-12-06T08:05:05.380Z,2.10
2022-12-06T08:07:32.565Z,2.45
2022-12-06T08:10:00.029Z,2.30
2022-12-06T08:12:30.535Z,2.78
2022-12-06T08:14:59.837Z,2.88
2022-12-06T08:17:27.516Z,2.50
2022-12-06T08:19:54.586Z,3.47
2022-12-06T08:22:21.773Z,3.20
2022-12-06T08:24:48.866Z,3.10
2022-12-06T08:27:15.990Z,2.72
2022-12-06T08:29:45.258Z,2.50
2022-12-06T08:32:12.351Z,2.72
2022-12-06T08:34:39.563Z,4.40
2022-12-06T08:37:06.655Z,3.85
2022-12-06T08:39:33.774Z,4.35
2022-12-06T08:42:03.448Z,4.80
2022-12-06T08:44:31.398Z,4.85
2022-12-06T08:46:59.454Z,4.82
2022-12-06T08:49:27.794Z,3.95
2022-12-06T08:51:54.950Z,4.82
2022-12-06T08:54:23.629Z,4.50
2022-12-06T08:56:51.428Z,3.50
2022-12-06T08:59:19.531Z,2.60
2022-12-06T09:01:47.211Z,2.72
2022-12-06T09:04:14.498Z,2.47
2022-12-06T09:06:42.799Z,2.65
2022-12-06T09:09:10.664Z,2.50
2022-12-06T09:11:38.327Z,3.13
2022-12-06T09:14:07.216Z,3.40
2022-12-06T09:16:34.453Z,3.30
2022-12-06T09:19:01.652Z,4.00
2022-12-06T09:21:33.497Z,3.80
2022-12-06T09:24:00.733Z,2.72
2022-12-06T09:26:28.340Z,2.70
2022-12-06T09:28:56.781Z,2.63
2022-12-06T09:31:24.312Z,2.30
2022-12-06T09:33:51.655Z,1.98
2022-12-06T09:36:21.512Z,1.25
2022-12-06T09:38:50.872Z,1.75
2022-12-06T09:41:30.210Z,2.35
2022-12-06T09:44:03.059Z,1.73
2022-12-06T09:46:39.357Z,1.80
2022-12-06T09:49:06.569Z,1.40
2022-12-06T09:51:56.722Z,1.88
2022-12-06T09:54:34.433Z,1.63
2022-12-06T09:57:06.751Z,1.63
2022-12-06T09:59:39.836Z,1.35
2022-12-06T10:02:12.755Z,1.25
2022-12-06T10:05:01.491Z,1.55
2022-12-06T10:07:33.912Z,2.92
2022-12-06T10:10:33.604Z,1.60
2022-12-06T10:13:10.341Z,1.05
2022-12-06T10:15:40.388Z,1.23
2022-12-06T10:18:13.710Z,1.30
2022-12-06T10:20:43.550Z,1.42
2022-12-06T10:23:13.386Z,1.10
2022-12-06T10:25:50.175Z,1.10
2022-12-06T10:28:35.430Z,1.13
2022-12-06T10:31:06.855Z,1.17
2022-12-06T10:33:52.154Z,1.70
2022-12-06T10:36:34.596Z,1.30
2022-12-06T10:39:05.757Z,1.15
2022-12-06T10:41:37.041Z,1.07
2022-12-06T10:44:07.725Z,1.33
2022-12-06T10:47:00.768Z,1.20
2022-12-06T10:49:46.556Z,1.63
2022-12-06T10:52:13.605Z,1.50
2022-12-06T10:55:06.854Z,2.85
2022-12-06T10:57:44.875Z,1.33
2022-12-06T11:00:16.070Z,0.90
2022-12-06T11:02:55.437Z,1.40
2022-12-06T11:05:25.240Z,1.98
2022-12-06T11:07:55.672Z,1.77
2022-12-06T11:10:25.235Z,1.63
2022-12-06T11:12:57.301Z,1.23
2022-12-06T11:18:02.336Z,1.17
2022-12-06T11:20:31.405Z,1.25
2022-12-06T11:23:06.042Z,1.20
2022-12-06T11:25:52.687Z,1.17
2022-12-06T11:28:41.871Z,2.20
2022-12-06T11:31:16.229Z,1.00
2022-12-06T11:33:43.644Z,1.15
2022-12-06T11:36:10.809Z,0.80
2022-12-06T11:38:40.595Z,0.70
2022-12-06T11:41:09.345Z,1.40
2022-12-06T11:43:36.599Z,1.08
2022-12-06T11:46:05.020Z,0.82
2022-12-06T11:48:33.418Z,0.60
2022-12-06T11:51:00.923Z,0.70
2022-12-06T11:53:30.841Z,0.88
2022-12-06T11:56:01.067Z,1.00
2022-12-06T11:58:28.232Z,0.80
2022-12-06T12:00:56.812Z,0.93
2022-12-06T12:03:35.181Z,0.85
2022-12-06T12:06:17.675Z,0.68
2022-12-06T12:09:01.268Z,1.13
2022-12-06T12:11:30.873Z,1.20
2022-12-06T12:14:16.452Z,1.00
2022-12-06T12:16:45.054Z,0.93
2022-12-06T12:19:27.906Z,1.10
2022-12-06T12:21:56.041Z,0.90
2022-12-06T12:25:11.159Z,1.42
2022-12-06T12:27:42.322Z,1.10
2022-12-06T12:30:20.514Z,1.05
2022-12-06T12:32:48.575Z,1.10
2022-12-06T12:35:35.021Z,1.30
2022-12-06T12:38:22.509Z,0.93
2022-12-06T12:40:54.464Z,0.80
2022-12-06T12:46:07.505Z,0.82
2022-12-06T12:48:34.874Z,1.02
2022-12-06T12:51:06.643Z,1.10
2022-12-06T12:53:37.755Z,0.90
2022-12-06T12:56:10.970Z,0.70
2022-12-06T12:58:38.403Z,1.33
2022-12-06T13:01:19.075Z,0.95
2022-12-06T13:03:51.640Z,0.93
2022-12-06T13:06:27.965Z,1.20
2022-12-06T13:08:57.248Z,1.10
2022-12-06T13:11:24.439Z,0.90
2022-12-06T13:13:54.587Z,0.88
2022-12-06T13:16:24.297Z,1.10
2022-12-06T13:18:53.395Z,0.90
2022-12-06T13:21:25.715Z,1.85
2022-12-06T13:24:00.397Z,1.00
2022-12-06T13:26:30.314Z,1.20
2022-12-06T13:29:00.486Z,1.05
2022-12-06T13:31:31.243Z,1.27
2022-12-06T13:34:00.571Z,1.15
2022-12-06T13:36:28.714Z,0.88
2022-12-06T13:38:56.380Z,0.80
2022-12-06T13:41:54.107Z,1.00
2022-12-06T13:44:47.409Z,1.10
2022-12-06T13:47:29.817Z,1.05
2022-12-06T13:50:01.344Z,0.90
2022-12-06T13:52:43.932Z,0.80
2022-12-06T13:55:26.309Z,1.08
2022-12-06T13:57:56.684Z,1.08
2022-12-06T14:00:29.592Z,0.90
2022-12-06T14:02:59.617Z,1.23
2022-12-06T14:05:45.201Z,1.20
2022-12-06T14:08:13.062Z,1.38
2022-12-06T14:10:40.433Z,1.33
2022-12-06T14:13:07.705Z,1.00
2022-12-06T14:15:38.661Z,1.10
2022-12-06T14:18:12.751Z,1.00
2022-12-06T14:20:42.069Z,0.90
2022-12-06T14:23:24.369Z,1.90
2022-12-06T14:25:51.630Z,0.65
2022-12-06T14:28:19.100Z,0.95
2022-12-06T14:30:46.625Z,0.82
2022-12-06T14:33:18.696Z,0.82
2022-12-06T14:38:27.252Z,0.50
2022-12-06T14:41:13.209Z,0.60
2022-12-06T14:43:41.994Z,0.55
2022-12-06T14:46:12.388Z,0.93
2022-12-06T14:48:58.317Z,0.80
2022-12-06T14:51:27.357Z,0.50
2022-12-06T14:53:54.461Z,0.98
2022-12-06T14:56:27.904Z,0.80
2022-12-06T14:58:57.270Z,1.00
2022-12-06T15:01:26.519Z,0.77
2022-12-06T15:03:58.284Z,0.70
2022-12-06T15:06:25.876Z,1.38
2022-12-06T15:08:59.073Z,1.08
2022-12-06T15:11:50.710Z,0.85
2022-12-06T15:14:25.158Z,0.80
2022-12-06T15:16:58.418Z,1.02
2022-12-06T15:19:25.624Z,1.05
2022-12-06T15:21:53.717Z,1.10
2022-12-06T15:24:21.961Z,1.15
2022-12-06T15:26:49.116Z,1.77
2022-12-06T15:29:16.467Z,1.52
2022-12-06T15:31:45.722Z,1.35
2022-12-06T15:34:35.028Z,1.15
2022-12-06T15:37:37.457Z,1.90
2022-12-06T15:39:49.904Z,1.70
2022-12-06T15:42:18.918Z,1.00
2022-12-06T15:44:49.600Z,1.58
2022-12-06T15:47:17.320Z,2.90
2022-12-06T15:49:45.454Z,1.80
2022-12-06T15:52:17.078Z,1.17
2022-12-06T15:54:44.213Z,1.08
2022-12-06T15:57:11.522Z,1.60
2022-12-06T15:59:38.585Z,3.55
2022-12-06T16:02:13.188Z,3.75
2022-12-06T16:04:40.388Z,1.90
2022-12-06T16:07:07.522Z,1.55
2022-12-06T16:09:34.598Z,1.73
2022-12-06T16:12:01.686Z,1.75
2022-12-06T16:14:28.852Z,1.33
2022-12-06T16:16:56.234Z,2.65
2022-12-06T16:19:23.367Z,3.63
2022-12-06T16:21:51.988Z,2.80
2022-12-06T16:24:19.728Z,3.17
2022-12-06T16:26:47.190Z,2.22
2022-12-06T16:29:15.946Z,1.98
2022-12-06T16:31:43.273Z,1.58
2022-12-06T16:34:10.709Z,1.85
2022-12-06T16:36:53.788Z,1.90
2022-12-06T16:39:20.912Z,1.92
2022-12-06T16:41:48.576Z,2.13
2022-12-06T16:44:15.649Z,2.15
2022-12-06T16:46:42.902Z,2.08
2022-12-06T16:49:44.565Z,1.77
2022-12-06T16:52:02.333Z,2.10
2022-12-06T16:54:29.413Z,2.40
2022-12-06T16:56:56.452Z,2.03
2022-12-06T16:59:23.565Z,2.28
2022-12-06T17:01:51.794Z,2.50
2022-12-06T17:04:19.288Z,3.13
2022-12-06T17:06:47.126Z,2.97
2022-12-06T17:09:14.760Z,3.22
2022-12-06T17:12:01.068Z,3.60
2022-12-06T17:14:28.342Z,3.20
2022-12-06T17:16:56.914Z,3.45
2022-12-06T17:19:27.976Z,3.40
2022-12-06T17:21:55.288Z,3.70
2022-12-06T17:24:23.020Z,3.70
2022-12-06T17:26:50.212Z,3.67
2022-12-06T17:29:17.595Z,3.58
2022-12-06T17:31:44.763Z,4.10
2022-12-06T17:34:15.200Z,3.58
2022-12-06T17:36:42.740Z,4.10
2022-12-06T17:39:11.165Z,3.67
2022-12-06T17:41:57.120Z,4.25
2022-12-06T17:44:24.332Z,4.00
2022-12-06T17:46:51.427Z,4.47
2022-12-06T17:49:22.992Z,3.97
2022-12-06T17:51:50.343Z,4.65
2022-12-06T17:54:17.780Z,5.13
2022-12-06T17:56:45.941Z,4.07
2022-12-06T17:59:14.506Z,5.10
2022-12-06T18:02:13.596Z,4.40
2022-12-06T18:04:29.569Z,4.70
2022-12-06T18:06:57.104Z,4.28
2022-12-06T18:09:24.576Z,4.15
2022-12-06T18:11:51.815Z,3.92
2022-12-06T18:14:19.096Z,3.85
2022-12-06T18:16:47.965Z,4.53
2022-12-06T18:19:16.481Z,4.03
2022-12-06T18:21:43.677Z,3.60
2022-12-06T18:24:21.349Z,3.03
2022-12-06T18:26:50.037Z,3.58
2022-12-06T18:29:18.546Z,3.67
2022-12-06T18:31:46.041Z,3.42
2022-12-06T18:34:13.607Z,3.90
2022-12-06T18:36:40.925Z,4.57
2022-12-06T18:39:14.974Z,3.78
2022-12-06T18:41:43.132Z,3.45
2022-12-06T18:44:10.883Z,4.40
2022-12-06T18:46:39.064Z,5.00
2022-12-06T18:49:06.500Z,3.72
2022-12-06T18:51:34.601Z,3.30
2022-12-06T18:54:03.070Z,3.13
2022-12-06T18:56:30.351Z,3.80
2022-12-06T18:59:01.176Z,3.72
2022-12-06T19:01:29.927Z,3.65
2022-12-06T19:03:59.646Z,3.65
2022-12-06T19:06:28.498Z,4.35
2022-12-06T19:08:57.808Z,3.83
2022-12-06T19:11:25.396Z,4.43
2022-12-06T19:13:59.338Z,4.30
2022-12-06T19:16:27.795Z,4.35
2022-12-06T19:18:56.045Z,4.30
2022-12-06T19:21:23.728Z,4.80
2022-12-06T19:23:53.611Z,4.57
2022-12-06T19:26:21.108Z,3.92
2022-12-06T19:28:48.351Z,3.78
2022-12-06T19:31:15.544Z,4.70
2022-12-06T19:33:44.097Z,5.53
2022-12-06T19:36:13.133Z,7.22
2022-12-06T19:38:40.644Z,6.63
2022-12-06T19:41:08.541Z,8.50
2022-12-06T19:43:54.417Z,5.38
2022-12-06T19:46:25.737Z,5.03
2022-12-06T19:48:53.753Z,7.03
2022-12-06T19:51:20.852Z,4.35
2022-12-06T19:53:47.978Z,4.15
2022-12-06T19:56:16.984Z,4.95
2022-12-06T19:58:44.277Z,3.63
2022-12-06T20:01:12.771Z,3.60
2022-12-06T20:03:39.890Z,3.50
2022-12-06T20:06:17.835Z,3.58
2022-12-06T20:08:45.684Z,3.13
2022-12-06T20:11:33.111Z,3.25
2022-12-06T20:14:00.989Z,2.88
2022-12-06T20:16:28.124Z,3.28
2022-12-06T20:18:55.441Z,6.70
2022-12-06T20:21:22.604Z,3.95
2022-12-06T20:23:49.750Z,3.70
2022-12-06T20:26:17.071Z,4.68
2022-12-06T20:28:47.816Z,5.53
2022-12-06T20:31:17.948Z,5.80
2022-12-06T20:33:45.428Z,4.45
2022-12-06T20:36:20.067Z,5.00
2022-12-06T20:38:47.269Z,4.55
2022-12-06T20:41:15.883Z,3.40
2022-12-06T20:43:43.680Z,4.30
2022-12-06T20:46:15.230Z,6.07
2022-12-06T20:48:43.793Z,4.30
2022-12-06T20:51:12.720Z,3.38
2022-12-06T20:53:40.744Z,3.22
2022-12-06T20:56:09.455Z,3.30
2022-12-06T20:58:36.940Z,3.67
2022-12-06T21:01:04.555Z,4.65
2022-12-06T21:03:32.292Z,3.85
2022-12-06T21:06:03.434Z,3.97
2022-12-06T21:08:31.150Z,4.00
2022-12-06T21:11:24.042Z,3.50
2022-12-06T21:13:45.784Z,4.40
2022-12-06T21:16:17.325Z,3.50
2022-12-06T21:18:44.689Z,2.53
2022-12-06T21:21:12.367Z,2.58
2022-12-06T21:23:40.509Z,2.45
2022-12-06T21:26:07.724Z,2.33
2022-12-06T21:28:35.013Z,2.90
2022-12-06T21:31:02.213Z,2.72
2022-12-06T21:33:29.363Z,3.10
2022-12-06T21:35:56.575Z,2.80
2022-12-06T21:38:23.651Z,2.35
2022-12-06T21:40:55.436Z,2.30
2022-12-06T21:43:24.627Z,2.20
2022-12-06T21:45:51.778Z,2.30
2022-12-06T21:48:18.815Z,2.28
2022-12-06T21:50:45.904Z,2.15
2022-12-06T21:53:13.021Z,2.10
2022-12-06T21:55:41.125Z,2.33
2022-12-06T21:58:08.797Z,2.00
2022-12-06T22:00:35.886Z,2.72
2022-12-06T22:03:03.037Z,2.20
2022-12-06T22:05:30.132Z,2.40
2022-12-06T22:07:57.223Z,2.00
2022-12-06T22:10:24.308Z,2.00
2022-12-06T22:12:51.392Z,1.85
2022-12-06T22:15:18.467Z,1.67
2022-12-06T22:17:45.521Z,1.50
2022-12-06T22:20:12.700Z,1.65
2022-12-06T22:22:40.570Z,1.60
2022-12-06T22:25:08.063Z,1.52
2022-12-06T22:27:35.156Z,1.52
2022-12-06T22:30:02.700Z,1.50
2022-12-06T22:32:29.920Z,1.63
2022-12-06T22:34:57.080Z,1.30
2022-12-06T22:37:28.362Z,1.30
2022-12-06T22:39:55.690Z,1.30
2022-12-06T22:42:22.774Z,1.63
2022-12-06T22:44:49.849Z,1.20
2022-12-06T22:47:16.984Z,1.20
2022-12-06T22:49:44.072Z,0.90
2022-12-06T22:52:11.119Z,1.30
2022-12-06T22:54:38.171Z,0.93
2022-12-06T22:57:05.287Z,1.27
2022-12-06T22:59:32.362Z,1.23
2022-12-06T23:01:59.472Z,1.10
2022-12-06T23:04:26.600Z,1.80
2022-12-06T23:06:53.676Z,1.30
2022-12-06T23:09:20.824Z,1.40
2022-12-06T23:11:47.982Z,1.20
2022-12-06T23:14:15.092Z,1.63
2022-12-06T23:16:45.068Z,2.33
2022-12-06T23:19:12.389Z,2.55
2022-12-06T23:21:40.839Z,3.92
2022-12-06T23:24:08.781Z,2.38
2022-12-06T23:26:39.185Z,0.98
2022-12-06T23:29:06.968Z,1.63
2022-12-06T23:31:35.703Z,2.53
2022-12-06T23:34:05.384Z,1.90
2022-12-06T23:36:33.743Z,1.63
2022-12-06T23:39:01.160Z,2.15
2022-12-06T23:41:29.347Z,2.42
2022-12-06T23:43:57.269Z,2.08
2022-12-06T23:46:26.079Z,1.60
2022-12-06T23:48:53.598Z,2.13
2022-12-06T23:51:22.009Z,0.70
2022-12-06T23:53:53.083Z,0.80
2022-12-06T23:56:21.003Z,2.47
2022-12-06T23:58:50.433Z,1.58
